createdAt,value
2023-03-27T00:00:01.745Z,95994.92
2023-03-27T00:02:35.214Z,95995.56
2023-03-27T00:05:08.503Z,95996.56
2023-03-27T00:07:42.793Z,95999.27
2023-03-27T00:10:16.928Z,95998.82
2023-03-27T00:12:49.630Z,95998.17
2023-03-27T00:15:23.057Z,95997.46
2023-03-27T00:17:56.245Z,95998.00
2023-03-27T00:20:30.441Z,95999.00
2023-03-27T00:23:03.389Z,95995.30
2023-03-27T00:25:38.584Z,95993.57
2023-03-27T00:28:14.396Z,95994.19
2023-03-27T00:30:49.267Z,95990.88
2023-03-27T00:33:20.035Z,95985.82
2023-03-27T00:35:54.037Z,95984.02
2023-03-27T00:38:26.677Z,95984.33
2023-03-27T00:41:00.209Z,95980.60
2023-03-27T00:43:35.479Z,95977.71
2023-03-27T00:46:21.802Z,95976.54
2023-03-27T00:48:56.827Z,95976.84
2023-03-27T00:51:31.586Z,95968.75
2023-03-27T00:54:06.557Z,95967.94
2023-03-27T00:56:39.964Z,95962.62
2023-03-27T00:59:17.536Z,95963.51
2023-03-27T01:01:51.019Z,95958.24
2023-03-27T01:04:23.697Z,95956.74
2023-03-27T01:07:00.527Z,95951.98
2023-03-27T01:09:34.653Z,95947.55
2023-03-27T01:12:21.393Z,95944.92
2023-03-27T01:15:07.372Z,95945.09
2023-03-27T01:17:54.062Z,95942.48
2023-03-27T01:20:54.087Z,95941.34
2023-03-27T01:24:04.871Z,95935.73
2023-03-27T01:27:11.080Z,95932.38
2023-03-27T01:30:04.319Z,95931.55
2023-03-27T01:33:06.329Z,95928.67
2023-03-27T01:36:10.337Z,95925.48
2023-03-27T01:39:25.832Z,95922.86
2023-03-27T01:42:06.374Z,95918.23
2023-03-27T01:44:49.096Z,95909.77
2023-03-27T01:47:32.129Z,95903.54
2023-03-27T01:50:12.913Z,95897.71
2023-03-27T01:52:49.702Z,95897.42
2023-03-27T01:55:28.084Z,95894.14
2023-03-27T01:58:06.354Z,95892.59
2023-03-27T02:00:52.204Z,95895.30
2023-03-27T02:03:30.207Z,95889.94
2023-03-27T02:06:09.124Z,95883.79
2023-03-27T02:08:48.893Z,95879.14
2023-03-27T02:11:26.723Z,95878.31
2023-03-27T02:14:04.184Z,95880.39
2023-03-27T02:16:43.401Z,95876.91
2023-03-27T02:19:21.234Z,95876.36
2023-03-27T02:21:54.588Z,95873.73
2023-03-27T02:24:29.414Z,95876.20
2023-03-27T02:27:13.255Z,95875.27
2023-03-27T02:30:05.423Z,95872.65
2023-03-27T02:32:50.095Z,95862.26
2023-03-27T02:35:41.625Z,95858.82
2023-03-27T02:38:21.134Z,95855.60
2023-03-27T02:41:07.615Z,95854.84
2023-03-27T02:44:02.736Z,95850.41
2023-03-27T02:47:01.767Z,95851.60
2023-03-27T02:49:39.627Z,95845.76
2023-03-27T02:52:15.546Z,95845.41
2023-03-27T02:54:52.860Z,95849.64
2023-03-27T02:57:32.098Z,95852.05
2023-03-27T03:00:28.413Z,95853.60
2023-03-27T03:03:28.328Z,95856.68
2023-03-27T03:06:11.510Z,95857.30
2023-03-27T03:08:47.207Z,95863.38
2023-03-27T03:11:19.960Z,95868.45
2023-03-27T03:13:52.439Z,95873.18
2023-03-27T03:16:24.913Z,95875.88
2023-03-27T03:18:58.942Z,95881.08
2023-03-27T03:21:32.464Z,95881.08
2023-03-27T03:24:03.540Z,95880.86
2023-03-27T03:26:36.533Z,95880.80
2023-03-27T03:29:11.925Z,95880.43
2023-03-27T03:31:46.156Z,95886.14
2023-03-27T03:34:22.854Z,95889.92
2023-03-27T03:36:55.798Z,95894.45
2023-03-27T03:39:34.311Z,95899.16
2023-03-27T03:42:07.325Z,95899.75
2023-03-27T03:44:39.972Z,95902.55
2023-03-27T03:47:23.675Z,95900.09
2023-03-27T03:49:56.341Z,95901.70
2023-03-27T03:52:29.278Z,95903.95
2023-03-27T03:55:02.029Z,95904.56
2023-03-27T03:57:34.835Z,95902.98
2023-03-27T04:00:17.915Z,95902.11
2023-03-27T04:02:55.131Z,95898.32
2023-03-27T04:05:29.455Z,95892.65
2023-03-27T04:08:07.481Z,95887.77
2023-03-27T04:10:41.943Z,95879.52
2023-03-27T04:13:22.565Z,95883.14
2023-03-27T04:16:02.206Z,95883.65
2023-03-27T04:18:41.836Z,95884.98
2023-03-27T04:21:18.483Z,95885.19
2023-03-27T04:23:51.745Z,95889.27
2023-03-27T04:26:33.461Z,95887.20
2023-03-27T04:29:30.645Z,95890.26
2023-03-27T04:32:07.299Z,95889.35
2023-03-27T04:34:46.835Z,95888.59
2023-03-27T04:37:29.461Z,95890.63
2023-03-27T04:40:21.301Z,95890.84
2023-03-27T04:42:56.424Z,95889.05
2023-03-27T04:45:29.138Z,95883.77
2023-03-27T04:48:02.190Z,95885.24
2023-03-27T04:50:38.110Z,95883.58
2023-03-27T04:53:11.181Z,95879.80
2023-03-27T04:55:52.513Z,95883.10
2023-03-27T04:58:27.008Z,95883.16
2023-03-27T05:01:00.643Z,95882.39
2023-03-27T05:04:00.004Z,95880.89
2023-03-27T05:06:42.143Z,95880.70
2023-03-27T05:09:18.141Z,95881.95
2023-03-27T05:11:51.568Z,95882.23
2023-03-27T05:14:27.015Z,95883.27
2023-03-27T05:17:01.256Z,95880.48
2023-03-27T05:19:35.535Z,95884.05
2023-03-27T05:22:08.197Z,95885.03
2023-03-27T05:24:42.552Z,95884.67
2023-03-27T05:27:15.635Z,95882.45
2023-03-27T05:29:50.086Z,95879.88
2023-03-27T05:32:23.083Z,95882.72
2023-03-27T05:35:04.535Z,95879.94
2023-03-27T05:37:42.633Z,95879.30
2023-03-27T05:40:41.647Z,95876.55
2023-03-27T05:43:15.204Z,95874.41
2023-03-27T05:45:48.150Z,95869.90
2023-03-27T05:48:21.724Z,95869.17
2023-03-27T05:50:54.625Z,95873.05
2023-03-27T05:53:29.180Z,95870.96
2023-03-27T05:56:23.514Z,95872.41
2023-03-27T05:59:02.725Z,95873.66
2023-03-27T06:01:37.180Z,95885.13
2023-03-27T06:04:11.440Z,95890.01
2023-03-27T06:07:02.813Z,95895.91
2023-03-27T06:09:37.243Z,95900.73
2023-03-27T06:12:28.298Z,95899.02
2023-03-27T06:15:10.191Z,95900.08
2023-03-27T06:17:50.718Z,95904.89
2023-03-27T06:20:25.363Z,95906.86
2023-03-27T06:23:01.217Z,95910.16
2023-03-27T06:25:38.341Z,95914.48
2023-03-27T06:28:12.657Z,95916.25
2023-03-27T06:30:51.759Z,95921.04
2023-03-27T06:33:48.038Z,95925.90
2023-03-27T06:36:44.254Z,95931.08
2023-03-27T06:39:18.223Z,95935.71
2023-03-27T06:41:56.692Z,95934.95
2023-03-27T06:44:34.318Z,95934.60
2023-03-27T06:47:21.828Z,95934.30
2023-03-27T06:49:54.988Z,95937.56
2023-03-27T06:52:28.628Z,95936.10
2023-03-27T06:55:15.152Z,95939.71
2023-03-27T06:57:58.597Z,95942.11
2023-03-27T07:00:34.628Z,95941.02
2023-03-27T07:03:40.417Z,95943.68
2023-03-27T07:06:38.570Z,95944.98
2023-03-27T07:09:15.264Z,95945.37
2023-03-27T07:11:50.999Z,95948.71
2023-03-27T07:14:26.448Z,95949.05
2023-03-27T07:17:00.882Z,95948.73
2023-03-27T07:19:38.951Z,95949.40
2023-03-27T07:22:14.703Z,95951.42
2023-03-27T07:24:47.453Z,95951.33
2023-03-27T07:27:20.729Z,95951.06
2023-03-27T07:29:52.289Z,95956.15
2023-03-27T07:32:36.660Z,95955.99
2023-03-27T07:35:13.196Z,95960.95
2023-03-27T07:37:52.063Z,95960.51
2023-03-27T07:40:44.603Z,95959.23
2023-03-27T07:43:46.296Z,95963.61
2023-03-27T07:46:19.113Z,95964.27
2023-03-27T07:48:52.616Z,95965.66
2023-03-27T07:51:28.648Z,95967.66
2023-03-27T07:54:04.569Z,95969.17
2023-03-27T07:56:41.482Z,95967.58
2023-03-27T07:59:37.314Z,95973.51
2023-03-27T08:02:17.588Z,95978.31
2023-03-27T08:04:52.366Z,95979.28
2023-03-27T08:07:25.976Z,95980.73
2023-03-27T08:10:03.427Z,95980.92
2023-03-27T08:12:40.614Z,95980.77
2023-03-27T08:15:14.360Z,95985.20
2023-03-27T08:17:45.649Z,95992.48
2023-03-27T08:20:19.197Z,95992.77
2023-03-27T08:23:07.707Z,95991.61
2023-03-27T08:26:01.031Z,95993.61
2023-03-27T08:28:38.524Z,95994.99
2023-03-27T08:31:15.393Z,95989.70
2023-03-27T08:33:50.043Z,95993.91
2023-03-27T08:36:28.746Z,95993.15
2023-03-27T08:39:03.414Z,95998.48
2023-03-27T08:41:46.893Z,95998.56
2023-03-27T08:44:27.172Z,96006.24
2023-03-27T08:47:05.114Z,96004.98
2023-03-27T08:49:48.360Z,96003.04
2023-03-27T08:52:30.362Z,96009.48
2023-03-27T08:55:13.498Z,96009.90
2023-03-27T08:57:55.657Z,96010.93
2023-03-27T09:00:55.897Z,96014.92
2023-03-27T09:03:37.891Z,96019.58
2023-03-27T09:06:49.729Z,96020.09
2023-03-27T09:10:08.106Z,96019.51
2023-03-27T09:13:29.977Z,96022.46
2023-03-27T09:16:16.332Z,96026.77
2023-03-27T09:19:00.541Z,96031.48
2023-03-27T09:21:45.524Z,96033.43
2023-03-27T09:24:29.897Z,96044.67
2023-03-27T09:27:32.936Z,96053.67
2023-03-27T09:30:32.425Z,96051.72
2023-03-27T09:33:25.891Z,96052.61
2023-03-27T09:36:01.488Z,96053.23
2023-03-27T09:38:39.035Z,96056.21
2023-03-27T09:41:19.704Z,96057.42
2023-03-27T09:44:01.152Z,96059.21
2023-03-27T09:46:35.301Z,96062.55
2023-03-27T09:49:14.174Z,96060.70
2023-03-27T09:51:52.200Z,96064.94
2023-03-27T09:54:57.776Z,96070.79
2023-03-27T09:57:39.071Z,96071.84
2023-03-27T10:00:31.614Z,96073.71
2023-03-27T10:03:08.393Z,96079.40
2023-03-27T10:05:44.716Z,96081.92
2023-03-27T10:08:39.448Z,96084.89
2023-03-27T10:11:31.231Z,96085.53
2023-03-27T10:14:19.773Z,96089.21
2023-03-27T10:16:53.221Z,96093.17
2023-03-27T10:19:29.884Z,96091.29
2023-03-27T10:22:14.269Z,96095.73
2023-03-27T10:24:50.156Z,96093.33
2023-03-27T10:27:41.122Z,96094.12
2023-03-27T10:30:34.921Z,96099.31
2023-03-27T10:33:36.971Z,96109.99
2023-03-27T10:36:23.779Z,96113.13
2023-03-27T10:38:59.561Z,96114.62
2023-03-27T10:41:52.738Z,96118.93
2023-03-27T10:44:29.019Z,96121.52
2023-03-27T10:47:03.626Z,96123.71
2023-03-27T10:49:45.578Z,96127.70
2023-03-27T10:52:35.925Z,96130.48
2023-03-27T10:55:34.966Z,96134.98
2023-03-27T10:58:22.494Z,96145.42
2023-03-27T11:01:01.501Z,96140.85
2023-03-27T11:03:41.653Z,96147.92
2023-03-27T11:06:19.322Z,96151.84
2023-03-27T11:09:06.092Z,96153.27
2023-03-27T11:11:51.034Z,96156.56
2023-03-27T11:14:29.950Z,96164.02
2023-03-27T11:17:09.143Z,96167.95
2023-03-27T11:20:08.882Z,96166.59
2023-03-27T11:23:06.244Z,96167.45
2023-03-27T11:25:52.182Z,96172.48
2023-03-27T11:28:38.091Z,96174.10
2023-03-27T11:31:21.782Z,96182.48
2023-03-27T11:33:57.962Z,96185.95
2023-03-27T11:36:42.115Z,96186.11
2023-03-27T11:39:29.313Z,96191.92
2023-03-27T11:42:07.235Z,96205.60
2023-03-27T11:44:40.667Z,96218.16
2023-03-27T11:47:37.636Z,96222.29
2023-03-27T11:50:25.071Z,96226.10
2023-03-27T11:53:16.786Z,96231.93
2023-03-27T11:56:22.275Z,96235.84
2023-03-27T11:59:24.357Z,96244.76
2023-03-27T12:02:15.180Z,96239.93
2023-03-27T12:04:56.449Z,96249.54
2023-03-27T12:07:53.868Z,96252.17
2023-03-27T12:10:33.478Z,96255.45
2023-03-27T12:14:01.135Z,96255.62
2023-03-27T12:17:12.206Z,96256.79
2023-03-27T12:20:33.801Z,96263.90
2023-03-27T12:23:28.605Z,96263.34
2023-03-27T12:26:44.028Z,96280.95
2023-03-27T12:29:53.315Z,96293.56
2023-03-27T12:32:46.345Z,96302.92
2023-03-27T12:35:21.839Z,96310.19
2023-03-27T12:38:02.515Z,96319.55
2023-03-27T12:40:44.028Z,96323.34
2023-03-27T12:43:34.204Z,96323.71
2023-03-27T12:46:34.639Z,96323.11
2023-03-27T12:49:48.084Z,96318.70
2023-03-27T12:52:30.683Z,96325.61
2023-03-27T12:55:39.490Z,96333.78
2023-03-27T12:58:37.373Z,96335.34
2023-03-27T13:02:01.455Z,96340.45
2023-03-27T13:05:01.441Z,96340.04
2023-03-27T13:07:40.668Z,96346.48
2023-03-27T13:10:35.458Z,96354.39
2023-03-27T13:13:39.762Z,96366.91
2023-03-27T13:16:29.139Z,96376.59
2023-03-27T13:19:21.282Z,96382.14
2023-03-27T13:22:14.086Z,96384.48
2023-03-27T13:25:12.403Z,96399.67
2023-03-27T13:28:04.889Z,96410.54
2023-03-27T13:30:47.699Z,96410.86
2023-03-27T13:33:47.078Z,96420.01
2023-03-27T13:36:33.922Z,96432.21
2023-03-27T13:39:21.440Z,96435.38
2023-03-27T13:42:15.627Z,96439.70
2023-03-27T13:45:04.727Z,96443.71
2023-03-27T13:48:12.052Z,96449.34
2023-03-27T13:51:19.963Z,96461.52
2023-03-27T13:54:08.163Z,96470.39
2023-03-27T13:57:02.579Z,96474.02
2023-03-27T14:00:08.682Z,96477.36
2023-03-27T14:03:19.601Z,96488.42
2023-03-27T14:06:40.897Z,96486.41
2023-03-27T14:09:25.860Z,96486.77
2023-03-27T14:12:26.228Z,96489.59
2023-03-27T14:15:34.666Z,96495.61
2023-03-27T14:19:03.512Z,96503.70
2023-03-27T14:21:56.242Z,96512.71
2023-03-27T14:24:38.681Z,96512.20
2023-03-27T14:27:34.097Z,96517.63
2023-03-27T14:30:20.955Z,96518.63
2023-03-27T14:33:29.166Z,96526.39
2023-03-27T14:36:06.788Z,96530.35
2023-03-27T14:38:42.065Z,96527.06
2023-03-27T14:41:26.018Z,96538.57
2023-03-27T14:44:04.510Z,96543.89
2023-03-27T14:46:49.415Z,96553.74
2023-03-27T14:49:27.267Z,96556.35
2023-03-27T14:52:08.171Z,96565.73
2023-03-27T14:55:18.504Z,96568.69
2023-03-27T14:57:58.457Z,96572.02
2023-03-27T15:00:36.879Z,96578.71
2023-03-27T15:03:16.569Z,96578.30
2023-03-27T15:06:06.909Z,96588.14
2023-03-27T15:08:50.477Z,96599.08
2023-03-27T15:11:49.205Z,96611.06
2023-03-27T15:14:33.376Z,96614.00
2023-03-27T15:17:10.272Z,96621.84
2023-03-27T15:19:48.793Z,96627.36
2023-03-27T15:22:31.299Z,96631.85
2023-03-27T15:25:07.487Z,96635.45
2023-03-27T15:27:43.616Z,96642.35
2023-03-27T15:30:27.736Z,96648.98
2023-03-27T15:33:02.430Z,96655.43
2023-03-27T15:35:37.514Z,96665.88
2023-03-27T15:38:14.516Z,96667.55
2023-03-27T15:40:48.194Z,96671.48
2023-03-27T15:43:23.895Z,96667.00
2023-03-27T15:46:15.359Z,96671.81
2023-03-27T15:48:55.719Z,96673.90
2023-03-27T15:51:34.960Z,96676.97
2023-03-27T15:54:27.535Z,96685.35
2023-03-27T15:57:10.041Z,96690.04
2023-03-27T15:59:52.855Z,96695.30
2023-03-27T16:02:28.870Z,96703.80
2023-03-27T16:05:02.974Z,96704.30
2023-03-27T16:07:47.764Z,96704.48
2023-03-27T16:10:34.278Z,96709.20
2023-03-27T16:13:09.505Z,96705.14
2023-03-27T16:15:46.882Z,96708.55
2023-03-27T16:18:27.227Z,96710.88
2023-03-27T16:21:09.027Z,96715.18
2023-03-27T16:23:42.452Z,96717.62
2023-03-27T16:26:18.063Z,96719.67
2023-03-27T16:28:51.361Z,96729.27
2023-03-27T16:31:24.490Z,96733.72
2023-03-27T16:33:58.725Z,96739.04
2023-03-27T16:36:34.047Z,96745.23
2023-03-27T16:39:08.067Z,96752.56
2023-03-27T16:41:40.756Z,96758.02
2023-03-27T16:44:13.736Z,96761.15
2023-03-27T16:46:46.969Z,96766.22
2023-03-27T16:49:20.352Z,96771.52
2023-03-27T16:51:53.399Z,96773.21
2023-03-27T16:54:26.900Z,96778.20
2023-03-27T16:56:59.671Z,96779.75
2023-03-27T16:59:32.883Z,96790.38
2023-03-27T17:02:05.817Z,96790.34
2023-03-27T17:04:39.045Z,96800.09
2023-03-27T17:07:12.235Z,96798.09
2023-03-27T17:09:45.035Z,96803.02
2023-03-27T17:12:17.592Z,96805.98
2023-03-27T17:14:50.568Z,96808.70
2023-03-27T17:17:23.278Z,96811.64
2023-03-27T17:19:57.822Z,96812.33
2023-03-27T17:22:31.755Z,96813.80
2023-03-27T17:25:06.276Z,96816.55
2023-03-27T17:27:39.215Z,96821.48
2023-03-27T17:30:16.070Z,96827.52
2023-03-27T17:33:00.000Z,96829.39
2023-03-27T17:35:46.796Z,96835.88
2023-03-27T17:38:24.105Z,96839.80
2023-03-27T17:41:01.198Z,96842.04
2023-03-27T17:43:35.765Z,96846.47
2023-03-27T17:46:09.966Z,96849.55
2023-03-27T17:48:44.591Z,96855.71
2023-03-27T17:51:17.527Z,96864.74
2023-03-27T17:53:51.228Z,96867.33
2023-03-27T17:56:28.413Z,96869.55
2023-03-27T17:59:11.755Z,96873.63
2023-03-27T18:01:50.820Z,96875.48
2023-03-27T18:04:25.925Z,96877.70
2023-03-27T18:07:03.400Z,96885.39
2023-03-27T18:09:39.217Z,96882.56
2023-03-27T18:12:12.342Z,96886.33
2023-03-27T18:14:48.528Z,96888.79
2023-03-27T18:17:22.712Z,96893.75
2023-03-27T18:19:56.776Z,96898.37
2023-03-27T18:22:29.767Z,96902.45
2023-03-27T18:25:03.874Z,96905.53
2023-03-27T18:27:40.312Z,96910.46
2023-03-27T18:30:18.503Z,96913.39
2023-03-27T18:32:51.825Z,96911.56
2023-03-27T18:35:26.759Z,96914.79
2023-03-27T18:38:04.134Z,96914.61
2023-03-27T18:40:37.978Z,96916.85
2023-03-27T18:43:13.842Z,96926.73
2023-03-27T18:45:48.098Z,96925.39
2023-03-27T18:48:20.733Z,96931.35
2023-03-27T18:50:58.953Z,96932.90
2023-03-27T18:53:32.246Z,96938.52
2023-03-27T18:56:05.114Z,96942.45
2023-03-27T18:58:38.115Z,96944.69
2023-03-27T19:01:12.826Z,96952.55
2023-03-27T19:03:46.220Z,96954.93
2023-03-27T19:06:20.006Z,96958.52
2023-03-27T19:08:51.582Z,96961.77
2023-03-27T19:11:24.405Z,96965.71
2023-03-27T19:14:32.825Z,96972.20
2023-03-27T19:17:24.810Z,96979.17
2023-03-27T19:20:18.474Z,96978.52
2023-03-27T19:23:12.134Z,96981.23
2023-03-27T19:25:53.153Z,96982.94
2023-03-27T19:28:26.236Z,96986.00
2023-03-27T19:31:05.531Z,96989.44
2023-03-27T19:33:38.704Z,96987.39
2023-03-27T19:36:13.261Z,96991.66
2023-03-27T19:38:45.908Z,96993.57
2023-03-27T19:41:20.494Z,96993.23
2023-03-27T19:43:53.485Z,96992.55
2023-03-27T19:46:27.014Z,96996.64
2023-03-27T19:49:01.263Z,96998.33
2023-03-27T19:51:44.312Z,96994.59
2023-03-27T19:54:18.648Z,96996.13
2023-03-27T19:56:51.473Z,96997.00
2023-03-27T19:59:30.740Z,96996.66
2023-03-27T20:02:04.587Z,96999.04
2023-03-27T20:04:37.254Z,97001.25
2023-03-27T20:07:10.448Z,97002.96
2023-03-27T20:09:43.259Z,97005.70
2023-03-27T20:12:16.601Z,97004.67
2023-03-27T20:15:02.941Z,97008.93
2023-03-27T20:17:43.395Z,97012.34
2023-03-27T20:20:16.829Z,97012.84
2023-03-27T20:22:57.755Z,97020.50
2023-03-27T20:25:33.921Z,97017.61
2023-03-27T20:28:08.386Z,97019.31
2023-03-27T20:30:42.665Z,97019.32
2023-03-27T20:33:19.434Z,97022.38
2023-03-27T20:35:53.002Z,97021.20
2023-03-27T20:38:29.265Z,97022.56
2023-03-27T20:41:04.032Z,97023.09
2023-03-27T20:43:39.166Z,97025.64
2023-03-27T20:46:14.495Z,97024.95
2023-03-27T20:48:53.819Z,97026.31
2023-03-27T20:51:31.547Z,97026.81
2023-03-27T20:54:10.376Z,97029.02
2023-03-27T20:56:44.565Z,97029.88
2023-03-27T20:59:17.222Z,97030.40
2023-03-27T21:01:50.621Z,97037.72
2023-03-27T21:04:26.206Z,97033.47
2023-03-27T21:06:59.314Z,97038.05
2023-03-27T21:09:32.514Z,97040.41
2023-03-27T21:12:05.358Z,97044.84
2023-03-27T21:14:38.158Z,97046.88
2023-03-27T21:17:11.204Z,97049.08
2023-03-27T21:19:44.198Z,97046.52
2023-03-27T21:22:16.827Z,97050.45
2023-03-27T21:24:49.997Z,97050.27
2023-03-27T21:27:22.678Z,97051.97
2023-03-27T21:29:55.539Z,97054.52
2023-03-27T21:32:29.355Z,97058.77
2023-03-27T21:35:02.385Z,97057.06
2023-03-27T21:37:35.026Z,97058.75
2023-03-27T21:40:09.221Z,97053.50
2023-03-27T21:42:41.847Z,97054.34
2023-03-27T21:45:14.716Z,97058.73
2023-03-27T21:47:48.070Z,97060.42
2023-03-27T21:50:21.448Z,97058.90
2023-03-27T21:52:54.107Z,97062.80
2023-03-27T21:55:26.737Z,97056.02
2023-03-27T21:57:59.222Z,97054.48
2023-03-27T22:00:32.118Z,97054.31
2023-03-27T22:03:04.811Z,97058.39
2023-03-27T22:05:39.635Z,97059.57
2023-03-27T22:08:12.158Z,97061.95
2023-03-27T22:10:45.128Z,97063.96
2023-03-27T22:13:17.770Z,97058.85
2023-03-27T22:15:50.324Z,97061.07
2023-03-27T22:18:23.257Z,97062.59
2023-03-27T22:20:59.047Z,97066.31
2023-03-27T22:23:33.911Z,97069.36
2023-03-27T22:26:07.537Z,97073.27
2023-03-27T22:28:42.457Z,97077.17
2023-03-27T22:31:16.979Z,97080.05
2023-03-27T22:33:49.632Z,97081.58
2023-03-27T22:36:22.320Z,97085.48
2023-03-27T22:38:55.505Z,97083.06
2023-03-27T22:41:29.085Z,97086.48
2023-03-27T22:44:03.868Z,97084.29
2023-03-27T22:46:40.351Z,97084.77
2023-03-27T22:49:14.731Z,97087.13
2023-03-27T22:51:47.411Z,97090.02
2023-03-27T22:54:20.145Z,97092.21
2023-03-27T22:56:55.543Z,97092.87
2023-03-27T22:59:28.765Z,97093.71
2023-03-27T23:02:03.093Z,97097.45
2023-03-27T23:04:36.583Z,97099.31
2023-03-27T23:07:09.110Z,97102.36
2023-03-27T23:09:42.588Z,97100.84
2023-03-27T23:12:15.065Z,97101.66
2023-03-27T23:14:49.537Z,97100.64
2023-03-27T23:17:22.198Z,97102.66
2023-03-27T23:19:55.316Z,97105.91
2023-03-27T23:22:27.866Z,97111.00
2023-03-27T23:25:00.571Z,97113.34
2023-03-27T23:27:33.526Z,97115.52
2023-03-27T23:30:07.065Z,97115.18
2023-03-27T23:32:39.622Z,97117.56
2023-03-27T23:35:15.057Z,97113.14
2023-03-27T23:37:49.266Z,97114.84
2023-03-27T23:40:22.015Z,97117.54
2023-03-27T23:42:54.625Z,97117.38
2023-03-27T23:45:27.094Z,97122.11
2023-03-27T23:47:59.563Z,97122.96
2023-03-27T23:50:32.147Z,97124.82
2023-03-27T23:53:04.903Z,97126.17
2023-03-27T23:55:39.065Z,97125.12
2023-03-27T23:58:11.823Z,97122.91
